sensor_id;sensor_type;location;lat;lon;timestamp;temperature;humidity
20349;DHT22;10332;50.208;18.988;2022-09-27T00:01:07;10.90;99.90
20349;DHT22;10332;50.208;18.988;2022-09-27T00:03:39;10.80;99.90
20349;DHT22;10332;50.208;18.988;2022-09-27T00:06:27;10.70;99.90
20349;DHT22;10332;50.208;18.988;2022-09-27T00:08:57;10.70;99.90
20349;DHT22;10332;50.208;18.988;2022-09-27T00:11:36;10.70;99.90
20349;DHT22;10332;50.208;18.988;2022-09-27T00:14:06;10.60;99.90
20349;DHT22;10332;50.208;18.988;2022-09-27T00:16:36;10.60;99.90
20349;DHT22;10332;50.208;18.988;2022-09-27T00:19:07;10.60;99.90
20349;DHT22;10332;50.208;18.988;2022-09-27T00:21:38;10.50;99.90
20349;DHT22;10332;50.208;18.988;2022-09-27T00:24:06;10.60;99.90
20349;DHT22;10332;50.208;18.988;2022-09-27T00:26:33;10.50;99.90
20349;DHT22;10332;50.208;18.988;2022-09-27T00:29:00;10.50;99.90
20349;DHT22;10332;50.208;18.988;2022-09-27T00:31:29;10.50;99.90
20349;DHT22;10332;50.208;18.988;2022-09-27T00:34:01;10.50;99.90
20349;DHT22;10332;50.208;18.988;2022-09-27T00:36:30;10.40;99.90
20349;DHT22;10332;50.208;18.988;2022-09-27T00:38:59;10.50;99.90
20349;DHT22;10332;50.208;18.988;2022-09-27T00:41:30;10.40;99.90
20349;DHT22;10332;50.208;18.988;2022-09-27T00:44:46;10.40;99.90
20349;DHT22;10332;50.208;18.988;2022-09-27T00:49:52;10.30;99.90
20349;DHT22;10332;50.208;18.988;2022-09-27T00:53:11;10.30;99.90
20349;DHT22;10332;50.208;18.988;2022-09-27T00:55:59;10.30;99.90
20349;DHT22;10332;50.208;18.988;2022-09-27T00:58:32;10.30;99.90
20349;DHT22;10332;50.208;18.988;2022-09-27T01:01:06;10.20;99.90
20349;DHT22;10332;50.208;18.988;2022-09-27T01:03:55;10.20;99.90
20349;DHT22;10332;50.208;18.988;2022-09-27T01:06:28;10.10;99.90
20349;DHT22;10332;50.208;18.988;2022-09-27T01:08:55;10.10;99.90
20349;DHT22;10332;50.208;18.988;2022-09-27T01:11:43;10.10;99.90
20349;DHT22;10332;50.208;18.988;2022-09-27T01:14:37;10.10;99.90
20349;DHT22;10332;50.208;18.988;2022-09-27T01:29:22;10.10;99.90
20349;DHT22;10332;50.208;18.988;2022-09-27T01:32:17;10.10;99.90
20349;DHT22;10332;50.208;18.988;2022-09-27T01:35:09;10.00;99.90
20349;DHT22;10332;50.208;18.988;2022-09-27T01:38:10;10.10;99.90
20349;DHT22;10332;50.208;18.988;2022-09-27T01:43:21;10.00;99.90
20349;DHT22;10332;50.208;18.988;2022-09-27T01:46:09;10.00;99.90
20349;DHT22;10332;50.208;18.988;2022-09-27T01:48:44;10.00;99.90
20349;DHT22;10332;50.208;18.988;2022-09-27T01:51:34;10.00;99.90
20349;DHT22;10332;50.208;18.988;2022-09-27T01:54:13;10.00;99.90
20349;DHT22;10332;50.208;18.988;2022-09-27T01:56:50;10.00;99.90
20349;DHT22;10332;50.208;18.988;2022-09-27T01:59:25;9.90;99.90
20349;DHT22;10332;50.208;18.988;2022-09-27T02:02:00;9.90;99.90
20349;DHT22;10332;50.208;18.988;2022-09-27T02:04:36;9.80;99.90
20349;DHT22;10332;50.208;18.988;2022-09-27T02:07:12;9.80;99.90
20349;DHT22;10332;50.208;18.988;2022-09-27T02:12:31;9.80;99.90
20349;DHT22;10332;50.208;18.988;2022-09-27T02:15:09;9.80;99.90
20349;DHT22;10332;50.208;18.988;2022-09-27T02:20:32;9.70;99.90
20349;DHT22;10332;50.208;18.988;2022-09-27T02:29:07;9.70;99.90
20349;DHT22;10332;50.208;18.988;2022-09-27T02:31:39;9.70;99.90
20349;DHT22;10332;50.208;18.988;2022-09-27T02:34:10;9.70;99.90
20349;DHT22;10332;50.208;18.988;2022-09-27T02:36:43;9.70;99.90
20349;DHT22;10332;50.208;18.988;2022-09-27T02:39:11;9.70;99.90
20349;DHT22;10332;50.208;18.988;2022-09-27T02:41:38;9.60;99.90
20349;DHT22;10332;50.208;18.988;2022-09-27T02:44:09;9.60;99.90
20349;DHT22;10332;50.208;18.988;2022-09-27T02:47:00;9.60;99.90
20349;DHT22;10332;50.208;18.988;2022-09-27T02:59:12;9.50;99.90
20349;DHT22;10332;50.208;18.988;2022-09-27T03:07:28;9.40;99.90
20349;DHT22;10332;50.208;18.988;2022-09-27T03:09:57;9.40;99.90
20349;DHT22;10332;50.208;18.988;2022-09-27T03:12:24;9.40;99.90
20349;DHT22;10332;50.208;18.988;2022-09-27T03:14:55;9.40;99.90
20349;DHT22;10332;50.208;18.988;2022-09-27T03:17:24;9.40;99.90
20349;DHT22;10332;50.208;18.988;2022-09-27T03:19:52;9.40;99.90
20349;DHT22;10332;50.208;18.988;2022-09-27T03:22:21;9.50;99.90
20349;DHT22;10332;50.208;18.988;2022-09-27T03:24:48;9.50;99.90
20349;DHT22;10332;50.208;18.988;2022-09-27T03:27:15;9.50;99.90
20349;DHT22;10332;50.208;18.988;2022-09-27T03:29:43;9.50;99.90
20349;DHT22;10332;50.208;18.988;2022-09-27T03:32:10;9.50;99.90
20349;DHT22;10332;50.208;18.988;2022-09-27T03:34:37;9.40;99.90
20349;DHT22;10332;50.208;18.988;2022-09-27T03:37:05;9.50;99.90
20349;DHT22;10332;50.208;18.988;2022-09-27T03:39:33;9.50;99.90
20349;DHT22;10332;50.208;18.988;2022-09-27T03:42:00;9.50;99.90
20349;DHT22;10332;50.208;18.988;2022-09-27T03:44:28;9.50;99.90
20349;DHT22;10332;50.208;18.988;2022-09-27T03:46:55;9.50;99.90
20349;DHT22;10332;50.208;18.988;2022-09-27T03:49:23;9.40;99.90
20349;DHT22;10332;50.208;18.988;2022-09-27T03:51:50;9.40;99.90
20349;DHT22;10332;50.208;18.988;2022-09-27T03:54:18;9.40;99.90
20349;DHT22;10332;50.208;18.988;2022-09-27T03:56:45;9.30;99.90
20349;DHT22;10332;50.208;18.988;2022-09-27T03:59:12;9.30;99.90
20349;DHT22;10332;50.208;18.988;2022-09-27T04:01:40;9.30;99.90
20349;DHT22;10332;50.208;18.988;2022-09-27T04:04:10;9.20;99.90
20349;DHT22;10332;50.208;18.988;2022-09-27T04:06:38;9.20;99.90
20349;DHT22;10332;50.208;18.988;2022-09-27T04:09:05;9.30;99.90
20349;DHT22;10332;50.208;18.988;2022-09-27T04:11:32;9.30;99.90
20349;DHT22;10332;50.208;18.988;2022-09-27T04:14:02;9.20;99.90
20349;DHT22;10332;50.208;18.988;2022-09-27T04:16:32;9.20;99.90
20349;DHT22;10332;50.208;18.988;2022-09-27T04:18:59;9.30;99.90
20349;DHT22;10332;50.208;18.988;2022-09-27T04:21:28;9.30;99.90
20349;DHT22;10332;50.208;18.988;2022-09-27T04:23:55;9.30;99.90
20349;DHT22;10332;50.208;18.988;2022-09-27T04:26:24;9.30;99.90
20349;DHT22;10332;50.208;18.988;2022-09-27T04:28:52;9.30;99.90
20349;DHT22;10332;50.208;18.988;2022-09-27T04:31:21;9.30;99.90
20349;DHT22;10332;50.208;18.988;2022-09-27T04:33:48;9.30;99.90
20349;DHT22;10332;50.208;18.988;2022-09-27T04:36:20;9.40;99.90
20349;DHT22;10332;50.208;18.988;2022-09-27T04:38:58;9.30;99.90
20349;DHT22;10332;50.208;18.988;2022-09-27T04:41:28;9.30;99.90
20349;DHT22;10332;50.208;18.988;2022-09-27T04:43:57;9.30;99.90
20349;DHT22;10332;50.208;18.988;2022-09-27T04:46:28;9.30;99.90
20349;DHT22;10332;50.208;18.988;2022-09-27T04:49:01;9.30;99.90
20349;DHT22;10332;50.208;18.988;2022-09-27T04:51:28;9.30;99.90
20349;DHT22;10332;50.208;18.988;2022-09-27T04:53:56;9.30;99.90
20349;DHT22;10332;50.208;18.988;2022-09-27T04:56:24;9.30;99.90
20349;DHT22;10332;50.208;18.988;2022-09-27T04:58:52;9.30;99.90
20349;DHT22;10332;50.208;18.988;2022-09-27T05:01:19;9.50;99.90
20349;DHT22;10332;50.208;18.988;2022-09-27T05:03:47;9.50;99.90
20349;DHT22;10332;50.208;18.988;2022-09-27T05:06:15;9.60;99.90
20349;DHT22;10332;50.208;18.988;2022-09-27T05:08:42;9.70;99.90
20349;DHT22;10332;50.208;18.988;2022-09-27T05:11:12;9.70;99.90
20349;DHT22;10332;50.208;18.988;2022-09-27T05:13:39;9.90;99.90
20349;DHT22;10332;50.208;18.988;2022-09-27T05:16:07;10.00;99.90
20349;DHT22;10332;50.208;18.988;2022-09-27T05:18:34;10.00;99.90
20349;DHT22;10332;50.208;18.988;2022-09-27T05:21:03;10.10;99.90
20349;DHT22;10332;50.208;18.988;2022-09-27T05:23:30;10.20;99.90
20349;DHT22;10332;50.208;18.988;2022-09-27T05:26:01;10.20;99.90
20349;DHT22;10332;50.208;18.988;2022-09-27T05:28:30;10.40;99.90
20349;DHT22;10332;50.208;18.988;2022-09-27T05:30:58;10.40;99.90
20349;DHT22;10332;50.208;18.988;2022-09-27T05:33:26;10.50;99.90
20349;DHT22;10332;50.208;18.988;2022-09-27T05:35:54;10.60;99.90
20349;DHT22;10332;50.208;18.988;2022-09-27T05:38:24;10.70;99.90
20349;DHT22;10332;50.208;18.988;2022-09-27T05:40:52;10.80;99.90
20349;DHT22;10332;50.208;18.988;2022-09-27T05:43:19;10.90;99.90
20349;DHT22;10332;50.208;18.988;2022-09-27T05:45:47;11.00;99.90
20349;DHT22;10332;50.208;18.988;2022-09-27T05:48:15;11.10;99.90
20349;DHT22;10332;50.208;18.988;2022-09-27T05:50:42;11.20;99.90
20349;DHT22;10332;50.208;18.988;2022-09-27T05:53:10;11.30;99.90
20349;DHT22;10332;50.208;18.988;2022-09-27T05:55:39;11.30;99.90
20349;DHT22;10332;50.208;18.988;2022-09-27T05:58:09;11.50;99.90
20349;DHT22;10332;50.208;18.988;2022-09-27T06:00:37;11.60;99.90
20349;DHT22;10332;50.208;18.988;2022-09-27T06:03:05;11.60;99.90
20349;DHT22;10332;50.208;18.988;2022-09-27T06:05:35;11.70;99.90
20349;DHT22;10332;50.208;18.988;2022-09-27T06:08:10;11.80;99.90
20349;DHT22;10332;50.208;18.988;2022-09-27T06:10:40;11.90;99.90
20349;DHT22;10332;50.208;18.988;2022-09-27T06:13:10;12.00;99.90
20349;DHT22;10332;50.208;18.988;2022-09-27T06:15:42;12.00;99.90
20349;DHT22;10332;50.208;18.988;2022-09-27T06:18:14;12.10;99.90
20349;DHT22;10332;50.208;18.988;2022-09-27T06:20:44;12.10;99.90
20349;DHT22;10332;50.208;18.988;2022-09-27T06:23:20;12.20;99.90
20349;DHT22;10332;50.208;18.988;2022-09-27T06:25:50;12.30;99.90
20349;DHT22;10332;50.208;18.988;2022-09-27T06:28:19;12.40;99.90
20349;DHT22;10332;50.208;18.988;2022-09-27T06:30:49;12.50;99.90
20349;DHT22;10332;50.208;18.988;2022-09-27T06:33:18;12.50;99.90
20349;DHT22;10332;50.208;18.988;2022-09-27T06:35:47;12.60;99.90
20349;DHT22;10332;50.208;18.988;2022-09-27T06:38:16;12.70;99.90
20349;DHT22;10332;50.208;18.988;2022-09-27T06:40:45;12.90;99.90
20349;DHT22;10332;50.208;18.988;2022-09-27T06:43:14;13.10;99.90
20349;DHT22;10332;50.208;18.988;2022-09-27T06:45:43;13.20;99.90
20349;DHT22;10332;50.208;18.988;2022-09-27T06:48:12;13.30;99.90
20349;DHT22;10332;50.208;18.988;2022-09-27T06:50:43;13.50;99.90
20349;DHT22;10332;50.208;18.988;2022-09-27T06:53:14;13.60;99.90
20349;DHT22;10332;50.208;18.988;2022-09-27T06:55:42;13.80;99.90
20349;DHT22;10332;50.208;18.988;2022-09-27T06:58:11;13.90;99.90
20349;DHT22;10332;50.208;18.988;2022-09-27T07:00:57;14.00;99.90
20349;DHT22;10332;50.208;18.988;2022-09-27T07:03:25;14.20;99.90
20349;DHT22;10332;50.208;18.988;2022-09-27T07:06:13;14.40;99.90
20349;DHT22;10332;50.208;18.988;2022-09-27T07:08:43;14.70;99.90
20349;DHT22;10332;50.208;18.988;2022-09-27T07:11:11;15.00;99.90
20349;DHT22;10332;50.208;18.988;2022-09-27T07:13:38;15.40;98.60
20349;DHT22;10332;50.208;18.988;2022-09-27T07:16:12;15.90;97.70
20349;DHT22;10332;50.208;18.988;2022-09-27T07:18:41;16.40;93.90
20349;DHT22;10332;50.208;18.988;2022-09-27T07:21:09;17.60;91.50
20349;DHT22;10332;50.208;18.988;2022-09-27T07:23:38;19.30;80.50
20349;DHT22;10332;50.208;18.988;2022-09-27T07:26:06;20.50;68.40
20349;DHT22;10332;50.208;18.988;2022-09-27T07:28:36;21.40;60.60
20349;DHT22;10332;50.208;18.988;2022-09-27T07:31:03;21.80;55.50
20349;DHT22;10332;50.208;18.988;2022-09-27T07:33:32;21.60;54.00
20349;DHT22;10332;50.208;18.988;2022-09-27T07:36:06;21.70;53.40
20349;DHT22;10332;50.208;18.988;2022-09-27T07:38:35;22.00;49.20
20349;DHT22;10332;50.208;18.988;2022-09-27T07:41:08;22.30;49.10
20349;DHT22;10332;50.208;18.988;2022-09-27T07:43:42;22.80;49.10
20349;DHT22;10332;50.208;18.988;2022-09-27T07:46:11;23.70;47.00
20349;DHT22;10332;50.208;18.988;2022-09-27T07:48:39;24.80;42.50
20349;DHT22;10332;50.208;18.988;2022-09-27T07:51:07;25.50;35.50
20349;DHT22;10332;50.208;18.988;2022-09-27T07:53:41;26.10;28.20
20349;DHT22;10332;50.208;18.988;2022-09-27T07:56:08;26.40;15.20
20349;DHT22;10332;50.208;18.988;2022-09-27T07:58:36;27.00;11.70
20349;DHT22;10332;50.208;18.988;2022-09-27T08:01:03;28.00;1.90
20349;DHT22;10332;50.208;18.988;2022-09-27T08:03:31;28.70;1.00
20349;DHT22;10332;50.208;18.988;2022-09-27T08:06:01;29.70;1.00
20349;DHT22;10332;50.208;18.988;2022-09-27T08:08:30;30.40;1.00
20349;DHT22;10332;50.208;18.988;2022-09-27T08:10:58;30.70;1.00
20349;DHT22;10332;50.208;18.988;2022-09-27T08:13:25;31.30;1.00
20349;DHT22;10332;50.208;18.988;2022-09-27T08:15:52;30.80;1.00
20349;DHT22;10332;50.208;18.988;2022-09-27T08:18:20;29.90;1.00
20349;DHT22;10332;50.208;18.988;2022-09-27T08:20:48;29.40;1.00
20349;DHT22;10332;50.208;18.988;2022-09-27T08:23:15;28.80;1.00
20349;DHT22;10332;50.208;18.988;2022-09-27T08:25:42;28.30;1.00
20349;DHT22;10332;50.208;18.988;2022-09-27T08:28:10;27.30;1.00
20349;DHT22;10332;50.208;18.988;2022-09-27T08:30:37;26.20;1.00
20349;DHT22;10332;50.208;18.988;2022-09-27T08:33:05;25.20;1.00
20349;DHT22;10332;50.208;18.988;2022-09-27T08:35:32;24.30;1.00
20349;DHT22;10332;50.208;18.988;2022-09-27T08:38:01;23.50;1.00
20349;DHT22;10332;50.208;18.988;2022-09-27T08:49:05;21.70;17.60
20349;DHT22;10332;50.208;18.988;2022-09-27T08:51:41;21.40;22.80
20349;DHT22;10332;50.208;18.988;2022-09-27T08:54:25;21.10;26.70
20349;DHT22;10332;50.208;18.988;2022-09-27T08:57:05;20.80;30.40
20349;DHT22;10332;50.208;18.988;2022-09-27T08:59:44;21.00;34.40
20349;DHT22;10332;50.208;18.988;2022-09-27T09:02:20;21.60;33.70
20349;DHT22;10332;50.208;18.988;2022-09-27T09:04:56;22.50;29.20
20349;DHT22;10332;50.208;18.988;2022-09-27T09:10:59;22.30;28.40
20349;DHT22;10332;50.208;18.988;2022-09-27T09:16:57;21.50;32.90
20349;DHT22;10332;50.208;18.988;2022-09-27T09:25:55;21.70;32.50
20349;DHT22;10332;50.208;18.988;2022-09-27T09:34:32;24.20;21.80
20349;DHT22;10332;50.208;18.988;2022-09-27T09:37:18;25.80;11.90
20349;DHT22;10332;50.208;18.988;2022-09-27T09:39:55;27.50;2.50
20349;DHT22;10332;50.208;18.988;2022-09-27T09:42:39;28.60;1.00
20349;DHT22;10332;50.208;18.988;2022-09-27T09:45:30;29.60;1.00
20349;DHT22;10332;50.208;18.988;2022-09-27T09:48:10;30.80;1.00
20349;DHT22;10332;50.208;18.988;2022-09-27T09:50:50;31.70;1.00
20349;DHT22;10332;50.208;18.988;2022-09-27T09:53:35;32.40;1.00
20349;DHT22;10332;50.208;18.988;2022-09-27T09:56:28;31.50;1.00
20349;DHT22;10332;50.208;18.988;2022-09-27T09:59:01;29.50;1.00
20349;DHT22;10332;50.208;18.988;2022-09-27T10:01:42;27.70;1.00
20349;DHT22;10332;50.208;18.988;2022-09-27T10:04:29;26.20;1.00
20349;DHT22;10332;50.208;18.988;2022-09-27T10:06:59;24.90;1.00
20349;DHT22;10332;50.208;18.988;2022-09-27T10:09:27;24.20;1.00
20349;DHT22;10332;50.208;18.988;2022-09-27T10:11:55;23.80;1.00
20349;DHT22;10332;50.208;18.988;2022-09-27T10:14:25;23.80;1.00
20349;DHT22;10332;50.208;18.988;2022-09-27T10:17:00;24.60;1.00
20349;DHT22;10332;50.208;18.988;2022-09-27T10:19:33;25.30;1.00
20349;DHT22;10332;50.208;18.988;2022-09-27T10:22:12;25.90;1.00
20349;DHT22;10332;50.208;18.988;2022-09-27T10:24:56;26.00;1.00
20349;DHT22;10332;50.208;18.988;2022-09-27T10:27:25;26.10;1.00
20349;DHT22;10332;50.208;18.988;2022-09-27T10:29:57;27.50;1.00
20349;DHT22;10332;50.208;18.988;2022-09-27T10:32:29;29.70;1.00
20349;DHT22;10332;50.208;18.988;2022-09-27T10:35:28;31.30;1.00
20349;DHT22;10332;50.208;18.988;2022-09-27T10:38:23;32.20;1.00
20349;DHT22;10332;50.208;18.988;2022-09-27T10:41:16;32.80;1.00
20349;DHT22;10332;50.208;18.988;2022-09-27T10:43:43;33.30;1.00
20349;DHT22;10332;50.208;18.988;2022-09-27T10:46:23;33.20;1.00
20349;DHT22;10332;50.208;18.988;2022-09-27T10:49:27;32.70;1.00
20349;DHT22;10332;50.208;18.988;2022-09-27T10:52:02;31.90;1.00
20349;DHT22;10332;50.208;18.988;2022-09-27T10:54:34;31.20;1.00
20349;DHT22;10332;50.208;18.988;2022-09-27T10:57:17;30.50;1.00
20349;DHT22;10332;50.208;18.988;2022-09-27T10:59:53;29.90;1.00
20349;DHT22;10332;50.208;18.988;2022-09-27T11:02:35;29.60;1.00
20349;DHT22;10332;50.208;18.988;2022-09-27T11:05:13;29.10;1.00
20349;DHT22;10332;50.208;18.988;2022-09-27T11:07:58;28.70;1.00
20349;DHT22;10332;50.208;18.988;2022-09-27T11:10:34;28.30;1.00
20349;DHT22;10332;50.208;18.988;2022-09-27T11:13:15;27.80;1.00
20349;DHT22;10332;50.208;18.988;2022-09-27T11:16:05;27.40;1.00
20349;DHT22;10332;50.208;18.988;2022-09-27T11:19:46;26.70;1.00
20349;DHT22;10332;50.208;18.988;2022-09-27T11:25:37;24.70;1.00
20349;DHT22;10332;50.208;18.988;2022-09-27T11:28:39;23.90;1.00
20349;DHT22;10332;50.208;18.988;2022-09-27T11:31:27;23.20;1.00
20349;DHT22;10332;50.208;18.988;2022-09-27T11:46:02;22.10;1.00
20349;DHT22;10332;50.208;18.988;2022-09-27T11:52:35;21.80;1.00
20349;DHT22;10332;50.208;18.988;2022-09-27T11:58:33;21.30;1.00
20349;DHT22;10332;50.208;18.988;2022-09-27T12:01:32;21.10;1.00
20349;DHT22;10332;50.208;18.988;2022-09-27T12:10:26;20.50;9.20
20349;DHT22;10332;50.208;18.988;2022-09-27T12:13:02;20.40;11.70
20349;DHT22;10332;50.208;18.988;2022-09-27T12:15:34;20.40;13.80
20349;DHT22;10332;50.208;18.988;2022-09-27T12:18:25;20.40;15.70
20349;DHT22;10332;50.208;18.988;2022-09-27T12:21:00;20.40;18.30
20349;DHT22;10332;50.208;18.988;2022-09-27T12:23:41;20.40;20.70
20349;DHT22;10332;50.208;18.988;2022-09-27T12:31:41;20.50;26.10
20349;DHT22;10332;50.208;18.988;2022-09-27T12:37:13;21.10;24.10
20349;DHT22;10332;50.208;18.988;2022-09-27T12:39:49;21.00;23.60
20349;DHT22;10332;50.208;18.988;2022-09-27T12:45:13;20.50;27.40
20349;DHT22;10332;50.208;18.988;2022-09-27T12:51:08;19.80;34.20
20349;DHT22;10332;50.208;18.988;2022-09-27T13:06:15;18.60;67.10
20349;DHT22;10332;50.208;18.988;2022-09-27T13:11:52;18.10;77.70
20349;DHT22;10332;50.208;18.988;2022-09-27T13:14:24;17.90;79.00
20349;DHT22;10332;50.208;18.988;2022-09-27T13:16:56;17.70;81.20
20349;DHT22;10332;50.208;18.988;2022-09-27T13:19:37;17.60;85.40
20349;DHT22;10332;50.208;18.988;2022-09-27T13:24:53;17.60;88.20
20349;DHT22;10332;50.208;18.988;2022-09-27T13:29:49;17.60;89.20
20349;DHT22;10332;50.208;18.988;2022-09-27T13:32:18;17.60;88.70
20349;DHT22;10332;50.208;18.988;2022-09-27T13:34:49;17.60;89.20
20349;DHT22;10332;50.208;18.988;2022-09-27T13:45:22;17.90;88.90
20349;DHT22;10332;50.208;18.988;2022-09-27T13:47:55;17.90;88.30
20349;DHT22;10332;50.208;18.988;2022-09-27T13:50:28;17.90;89.80
20349;DHT22;10332;50.208;18.988;2022-09-27T13:53:35;17.70;90.40
20349;DHT22;10332;50.208;18.988;2022-09-27T13:59:05;17.40;92.00
20349;DHT22;10332;50.208;18.988;2022-09-27T14:01:42;17.20;92.10
20349;DHT22;10332;50.208;18.988;2022-09-27T14:04:21;17.00;92.40
20349;DHT22;10332;50.208;18.988;2022-09-27T14:06:59;16.90;93.10
20349;DHT22;10332;50.208;18.988;2022-09-27T14:09:36;16.70;93.70
20349;DHT22;10332;50.208;18.988;2022-09-27T14:12:14;16.60;95.10
20349;DHT22;10332;50.208;18.988;2022-09-27T14:14:45;16.50;95.40
20349;DHT22;10332;50.208;18.988;2022-09-27T14:17:16;16.40;97.00
20349;DHT22;10332;50.208;18.988;2022-09-27T14:19:44;16.10;99.90
20349;DHT22;10332;50.208;18.988;2022-09-27T14:22:12;15.80;99.90
20349;DHT22;10332;50.208;18.988;2022-09-27T14:24:52;15.50;99.90
20349;DHT22;10332;50.208;18.988;2022-09-27T14:27:29;15.20;99.90
20349;DHT22;10332;50.208;18.988;2022-09-27T14:30:25;14.90;99.90
20349;DHT22;10332;50.208;18.988;2022-09-27T14:32:56;14.60;99.90
20349;DHT22;10332;50.208;18.988;2022-09-27T14:35:29;14.30;99.90
20349;DHT22;10332;50.208;18.988;2022-09-27T14:38:19;14.10;99.90
20349;DHT22;10332;50.208;18.988;2022-09-27T14:41:06;14.00;99.90
20349;DHT22;10332;50.208;18.988;2022-09-27T14:43:40;13.90;99.90
20349;DHT22;10332;50.208;18.988;2022-09-27T14:46:32;13.80;99.90
20349;DHT22;10332;50.208;18.988;2022-09-27T14:49:20;13.80;99.90
20349;DHT22;10332;50.208;18.988;2022-09-27T14:51:53;13.70;99.90
20349;DHT22;10332;50.208;18.988;2022-09-27T14:54:27;13.60;99.90
20349;DHT22;10332;50.208;18.988;2022-09-27T14:56:58;13.60;99.90
20349;DHT22;10332;50.208;18.988;2022-09-27T14:59:28;13.60;99.90
20349;DHT22;10332;50.208;18.988;2022-09-27T15:02:08;13.60;99.90
20349;DHT22;10332;50.208;18.988;2022-09-27T15:04:45;13.70;99.90
20349;DHT22;10332;50.208;18.988;2022-09-27T15:07:15;13.60;99.90
20349;DHT22;10332;50.208;18.988;2022-09-27T15:09:43;13.60;99.90
20349;DHT22;10332;50.208;18.988;2022-09-27T15:12:14;13.60;99.90
20349;DHT22;10332;50.208;18.988;2022-09-27T15:14:52;13.60;99.90
20349;DHT22;10332;50.208;18.988;2022-09-27T15:17:21;13.60;99.90
20349;DHT22;10332;50.208;18.988;2022-09-27T15:20:16;13.70;99.90
20349;DHT22;10332;50.208;18.988;2022-09-27T15:22:44;13.80;99.90
20349;DHT22;10332;50.208;18.988;2022-09-27T15:25:17;13.90;99.90
20349;DHT22;10332;50.208;18.988;2022-09-27T15:27:54;13.90;99.90
20349;DHT22;10332;50.208;18.988;2022-09-27T15:30:32;13.90;99.90
20349;DHT22;10332;50.208;18.988;2022-09-27T15:33:02;13.90;99.90
20349;DHT22;10332;50.208;18.988;2022-09-27T15:35:32;13.80;99.90
20349;DHT22;10332;50.208;18.988;2022-09-27T15:38:30;13.80;99.90
20349;DHT22;10332;50.208;18.988;2022-09-27T15:41:00;13.70;99.90
20349;DHT22;10332;50.208;18.988;2022-09-27T15:43:47;13.70;99.90
20349;DHT22;10332;50.208;18.988;2022-09-27T15:46:40;13.70;99.90
20349;DHT22;10332;50.208;18.988;2022-09-27T15:49:29;13.60;99.90
20349;DHT22;10332;50.208;18.988;2022-09-27T15:51:59;13.50;99.90
20349;DHT22;10332;50.208;18.988;2022-09-27T15:54:33;13.50;99.90
20349;DHT22;10332;50.208;18.988;2022-09-27T15:57:04;13.50;99.90
20349;DHT22;10332;50.208;18.988;2022-09-27T15:59:34;13.40;99.90
20349;DHT22;10332;50.208;18.988;2022-09-27T16:02:09;13.40;99.90
20349;DHT22;10332;50.208;18.988;2022-09-27T16:04:42;13.30;99.90
20349;DHT22;10332;50.208;18.988;2022-09-27T16:07:16;13.30;99.90
20349;DHT22;10332;50.208;18.988;2022-09-27T16:09:43;13.30;99.90
20349;DHT22;10332;50.208;18.988;2022-09-27T16:12:12;13.20;99.90
20349;DHT22;10332;50.208;18.988;2022-09-27T16:14:39;13.10;99.90
20349;DHT22;10332;50.208;18.988;2022-09-27T16:17:09;13.10;99.90
20349;DHT22;10332;50.208;18.988;2022-09-27T16:19:36;13.10;99.90
20349;DHT22;10332;50.208;18.988;2022-09-27T16:22:05;13.10;99.90
20349;DHT22;10332;50.208;18.988;2022-09-27T16:24:39;13.00;99.90
20349;DHT22;10332;50.208;18.988;2022-09-27T16:27:06;13.00;99.90
20349;DHT22;10332;50.208;18.988;2022-09-27T16:29:33;13.00;99.90
20349;DHT22;10332;50.208;18.988;2022-09-27T16:32:01;13.00;99.90
20349;DHT22;10332;50.208;18.988;2022-09-27T16:34:28;12.90;99.90
20349;DHT22;10332;50.208;18.988;2022-09-27T16:36:55;12.80;99.90
20349;DHT22;10332;50.208;18.988;2022-09-27T16:39:27;12.80;99.90
20349;DHT22;10332;50.208;18.988;2022-09-27T16:41:55;12.80;99.90
20349;DHT22;10332;50.208;18.988;2022-09-27T16:44:22;12.80;99.90
20349;DHT22;10332;50.208;18.988;2022-09-27T16:46:50;12.70;99.90
20349;DHT22;10332;50.208;18.988;2022-09-27T16:49:17;12.80;99.90
20349;DHT22;10332;50.208;18.988;2022-09-27T16:52:03;12.80;99.90
20349;DHT22;10332;50.208;18.988;2022-09-27T16:54:30;12.70;99.90
20349;DHT22;10332;50.208;18.988;2022-09-27T16:56:58;12.70;99.90
20349;DHT22;10332;50.208;18.988;2022-09-27T16:59:26;12.70;99.90
20349;DHT22;10332;50.208;18.988;2022-09-27T17:01:54;12.70;99.90
20349;DHT22;10332;50.208;18.988;2022-09-27T17:04:25;12.70;99.90
20349;DHT22;10332;50.208;18.988;2022-09-27T17:06:54;12.60;99.90
20349;DHT22;10332;50.208;18.988;2022-09-27T17:09:25;12.60;99.90
20349;DHT22;10332;50.208;18.988;2022-09-27T17:11:53;12.60;99.90
20349;DHT22;10332;50.208;18.988;2022-09-27T17:14:22;12.60;99.90
20349;DHT22;10332;50.208;18.988;2022-09-27T17:16:49;12.50;99.90
20349;DHT22;10332;50.208;18.988;2022-09-27T17:19:18;12.50;99.90
20349;DHT22;10332;50.208;18.988;2022-09-27T17:21:45;12.50;99.90
20349;DHT22;10332;50.208;18.988;2022-09-27T17:24:13;12.60;99.90
20349;DHT22;10332;50.208;18.988;2022-09-27T17:26:42;12.50;99.90
20349;DHT22;10332;50.208;18.988;2022-09-27T17:29:11;12.50;99.90
20349;DHT22;10332;50.208;18.988;2022-09-27T17:31:40;12.50;99.90
20349;DHT22;10332;50.208;18.988;2022-09-27T17:34:10;12.50;99.90
20349;DHT22;10332;50.208;18.988;2022-09-27T17:36:42;12.50;99.90
20349;DHT22;10332;50.208;18.988;2022-09-27T17:39:16;12.50;99.90
20349;DHT22;10332;50.208;18.988;2022-09-27T17:41:45;12.50;99.90
20349;DHT22;10332;50.208;18.988;2022-09-27T17:44:16;12.40;99.90
20349;DHT22;10332;50.208;18.988;2022-09-27T17:46:47;12.50;99.90
20349;DHT22;10332;50.208;18.988;2022-09-27T17:49:34;12.40;99.90
20349;DHT22;10332;50.208;18.988;2022-09-27T17:52:20;12.40;99.90
20349;DHT22;10332;50.208;18.988;2022-09-27T17:54:49;12.40;99.90
20349;DHT22;10332;50.208;18.988;2022-09-27T17:57:20;12.40;99.90
20349;DHT22;10332;50.208;18.988;2022-09-27T17:59:48;12.40;99.90
20349;DHT22;10332;50.208;18.988;2022-09-27T18:02:17;12.40;99.90
20349;DHT22;10332;50.208;18.988;2022-09-27T18:04:44;12.40;99.90
20349;DHT22;10332;50.208;18.988;2022-09-27T18:07:12;12.40;99.90
20349;DHT22;10332;50.208;18.988;2022-09-27T18:09:40;12.30;99.90
20349;DHT22;10332;50.208;18.988;2022-09-27T18:12:07;12.30;99.90
20349;DHT22;10332;50.208;18.988;2022-09-27T18:14:35;12.30;99.90
20349;DHT22;10332;50.208;18.988;2022-09-27T18:17:03;12.30;99.90
20349;DHT22;10332;50.208;18.988;2022-09-27T18:19:30;12.30;99.90
20349;DHT22;10332;50.208;18.988;2022-09-27T18:21:58;12.30;99.90
20349;DHT22;10332;50.208;18.988;2022-09-27T18:24:27;12.30;99.90
20349;DHT22;10332;50.208;18.988;2022-09-27T18:26:54;12.30;99.90